Time,TemperatureF,DewpointF,PressureIn,WindDirection,WindDirectionDegrees,WindSpeedMPH,WindSpeedGustMPH,Humidity,HourlyPrecipIn,Conditions,Clouds,dailyrainin,SolarRadiationWatts/m^2,SoftwareType,DateUTC
2013-01-17 00:02:00,37.0,12.0,-100.00,NNE,18,3.0,6.0,35,0.00,,,0.00,0.000000,,2013-01-17 07:02:00,
2013-01-17 00:33:00,38.0,14.0,-100.00,NNE,23,3.0,6.0,37,0.00,,,-99.99,1.000000,,2013-01-17 07:33:00,
2013-01-17 00:42:00,38.0,14.0,-100.00,NNE,23,3.0,6.0,37,0.00,,,-99.99,1.000000,,2013-01-17 07:42:00,
2013-01-17 00:52:00,38.0,14.0,-100.00,NNE,23,3.0,6.0,37,0.00,,,-99.99,1.000000,,2013-01-17 07:52:00,
2013-01-17 01:02:00,38.0,14.0,-100.00,NNE,23,3.0,6.0,37,0.00,,,-99.99,1.000000,,2013-01-17 08:02:00,
2013-01-17 01:32:00,35.0,13.0,-100.00,North,359,3.0,6.0,40,0.00,,,0.00,1.000000,,2013-01-17 08:32:00,
2013-01-17 01:43:00,35.0,13.0,-100.00,North,359,3.0,6.0,40,0.00,,,0.00,1.000000,,2013-01-17 08:43:00,
2013-01-17 01:52:00,35.0,13.0,-100.00,North,359,3.0,6.0,40,0.00,,,0.00,1.000000,,2013-01-17 08:52:00,
2013-01-17 02:02:00,35.0,13.0,-100.00,North,359,3.0,6.0,40,0.00,,,0.00,1.000000,,2013-01-17 09:02:00,
2013-01-17 02:33:00,32.0,14.0,-100.00,NNW,335,2.0,5.0,46,0.00,,,0.00,1.000000,,2013-01-17 09:33:00,
2013-01-17 02:42:00,32.0,14.0,-100.00,NNW,335,2.0,5.0,46,0.00,,,0.00,1.000000,,2013-01-17 09:42:00,
2013-01-17 02:52:00,32.0,14.0,-100.00,NNW,335,2.0,5.0,46,0.00,,,0.00,1.000000,,2013-01-17 09:52:00,
2013-01-17 03:02:00,32.0,14.0,-100.00,NNW,335,2.0,5.0,46,0.00,,,0.00,1.000000,,2013-01-17 10:02:00,
2013-01-17 03:33:00,35.0,13.0,-100.00,North,5,4.0,6.0,40,0.00,,,0.00,0.000000,,2013-01-17 10:33:00,
2013-01-17 03:43:00,35.0,13.0,-100.00,North,5,4.0,6.0,40,0.00,,,0.00,0.000000,,2013-01-17 10:43:00,
2013-01-17 03:53:00,35.0,13.0,-100.00,North,5,4.0,6.0,40,0.00,,,0.00,0.000000,,2013-01-17 10:53:00,
2013-01-17 04:02:00,35.0,13.0,-100.00,North,5,4.0,6.0,40,0.00,,,0.00,0.000000,,2013-01-17 11:02:00,
2013-01-17 04:33:00,34.0,15.0,-100.00,NNE,14,3.0,6.0,46,0.00,,,0.00,1.000000,,2013-01-17 11:33:00,
2013-01-17 04:43:00,34.0,15.0,-100.00,NNE,14,3.0,6.0,46,0.00,,,0.00,1.000000,,2013-01-17 11:43:00,
2013-01-17 04:53:00,34.0,15.0,-100.00,NNE,14,3.0,6.0,46,0.00,,,0.00,1.000000,,2013-01-17 11:53:00,
2013-01-17 05:02:00,34.0,15.0,-100.00,NNE,14,3.0,6.0,46,0.00,,,0.00,1.000000,,2013-01-17 12:02:00,
2013-01-17 05:33:00,33.0,14.0,-100.00,WNW,294,3.0,7.0,46,0.00,,,0.00,0.000000,,2013-01-17 12:33:00,
2013-01-17 05:43:00,33.0,14.0,-100.00,WNW,294,3.0,7.0,46,0.00,,,0.00,0.000000,,2013-01-17 12:43:00,
2013-01-17 05:53:00,33.0,14.0,-100.00,WNW,294,3.0,7.0,46,0.00,,,0.00,0.000000,,2013-01-17 12:53:00,
2013-01-17 06:02:00,33.0,14.0,-100.00,WNW,294,3.0,7.0,46,0.00,,,0.00,0.000000,,2013-01-17 13:02:00,
2013-01-17 06:33:00,33.0,14.0,-100.00,NNW,347,4.0,6.0,46,-99.99,,,-99.99,1.000000,,2013-01-17 13:33:00,
2013-01-17 07:33:00,33.0,13.0,-100.00,North,353,4.0,7.0,44,-99.99,,,0.00,1.000000,,2013-01-17 14:33:00,
2013-01-17 08:33:00,37.0,18.0,-100.00,North,354,4.0,6.0,46,-99.99,,,0.00,14.000000,,2013-01-17 15:33:00,
2013-01-17 09:33:00,53.0,22.0,-100.00,NNW,330,5.0,7.0,29,-99.99,,,0.00,192.000000,,2013-01-17 16:33:00,
2013-01-17 10:33:00,64.0,12.0,-100.00,NE,37,3.0,10.0,13,0.00,,,0.00,386.000000,,2013-01-17 17:33:00,
2013-01-17 10:43:00,64.0,12.0,-100.00,NE,37,3.0,10.0,13,0.00,,,0.00,386.000000,,2013-01-17 17:43:00,
2013-01-17 10:53:00,64.0,12.0,-100.00,NE,37,3.0,10.0,13,0.00,,,0.00,386.000000,,2013-01-17 17:53:00,
2013-01-17 11:03:00,64.0,12.0,-100.00,NE,37,3.0,10.0,13,0.00,,,0.00,386.000000,,2013-01-17 18:03:00,
2013-01-17 11:34:00,64.0,8.0,-100.00,SE,136,12.0,21.0,11,0.00,,,0.00,536.000000,,2013-01-17 18:34:00,
2013-01-17 11:44:00,64.0,8.0,-100.00,SE,136,12.0,21.0,11,0.00,,,0.00,536.000000,,2013-01-17 18:44:00,
2013-01-17 11:53:00,64.0,8.0,-100.00,SE,136,12.0,21.0,11,0.00,,,0.00,536.000000,,2013-01-17 18:53:00,
2013-01-17 12:03:00,64.0,8.0,-100.00,SE,136,12.0,21.0,11,0.00,,,0.00,536.000000,,2013-01-17 19:03:00,
2013-01-17 12:33:00,67.0,9.0,-100.00,SE,135,12.0,20.0,10,0.00,,,0.00,632.000000,,2013-01-17 19:33:00,
2013-01-17 12:43:00,67.0,9.0,-100.00,SE,135,12.0,20.0,10,0.00,,,0.00,632.000000,,2013-01-17 19:43:00,
2013-01-17 12:53:00,67.0,9.0,-100.00,SE,135,12.0,20.0,10,0.00,,,0.00,632.000000,,2013-01-17 19:53:00,
2013-01-17 13:02:00,67.0,9.0,-100.00,SE,135,12.0,20.0,10,0.00,,,0.00,632.000000,,2013-01-17 20:02:00,
2013-01-17 14:34:00,70.0,9.0,-100.00,SE,136,13.0,21.0,9,-99.99,,,0.00,635.000000,,2013-01-17 21:34:00,
2013-01-17 14:43:00,70.0,9.0,-100.00,SE,136,13.0,21.0,9,-99.99,,,0.00,635.000000,,2013-01-17 21:43:00,
2013-01-17 14:53:00,70.0,9.0,-100.00,SE,136,13.0,21.0,9,-99.99,,,0.00,635.000000,,2013-01-17 21:53:00,
2013-01-17 15:03:00,70.0,9.0,-100.00,SE,136,13.0,21.0,9,-99.99,,,0.00,635.000000,,2013-01-17 22:03:00,
2013-01-17 15:33:00,71.0,9.0,-100.00,SE,144,10.0,20.0,9,0.00,,,0.00,538.000000,,2013-01-17 22:33:00,
2013-01-17 15:43:00,71.0,9.0,-100.00,SE,144,10.0,20.0,9,0.00,,,0.00,538.000000,,2013-01-17 22:43:00,
2013-01-17 15:52:00,71.0,9.0,-100.00,SE,144,10.0,20.0,9,0.00,,,0.00,538.000000,,2013-01-17 22:52:00,
2013-01-17 16:02:00,71.0,9.0,-100.00,SE,144,10.0,20.0,9,0.00,,,0.00,538.000000,,2013-01-17 23:02:00,
2013-01-17 16:33:00,69.0,10.0,-100.00,SE,144,11.0,17.0,10,0.00,,,0.00,385.000000,,2013-01-17 23:33:00,
2013-01-17 16:43:00,69.0,10.0,-100.00,SE,144,11.0,17.0,10,0.00,,,0.00,385.000000,,2013-01-17 23:43:00,
2013-01-17 16:53:00,69.0,10.0,-100.00,SE,144,11.0,17.0,10,0.00,,,0.00,385.000000,,2013-01-17 23:53:00,
2013-01-17 17:02:00,69.0,10.0,-100.00,SE,144,11.0,17.0,10,0.00,,,0.00,385.000000,,2013-01-18 00:02:00,
2013-01-17 17:33:00,67.0,11.0,-100.00,SE,133,7.0,15.0,11,0.00,,,0.00,198.000000,,2013-01-18 00:33:00,
2013-01-17 17:43:00,67.0,11.0,-100.00,SE,133,7.0,15.0,11,0.00,,,0.00,198.000000,,2013-01-18 00:43:00,
2013-01-17 17:53:00,67.0,11.0,-100.00,SE,133,7.0,15.0,11,0.00,,,0.00,198.000000,,2013-01-18 00:53:00,
2013-01-17 18:02:00,67.0,11.0,-100.00,SE,133,7.0,15.0,11,0.00,,,0.00,198.000000,,2013-01-18 01:02:00,
2013-01-17 18:33:00,61.0,10.0,-100.00,NE,55,3.0,11.0,13,0.00,,,0.00,24.000000,,2013-01-18 01:33:00,
2013-01-17 18:43:00,61.0,10.0,-100.00,NE,55,3.0,11.0,13,0.00,,,0.00,24.000000,,2013-01-18 01:43:00,
2013-01-17 18:53:00,61.0,10.0,-100.00,NE,55,3.0,11.0,13,0.00,,,0.00,24.000000,,2013-01-18 01:53:00,
2013-01-17 19:02:00,61.0,10.0,-100.00,NE,55,3.0,11.0,13,0.00,,,0.00,24.000000,,2013-01-18 02:02:00,
2013-01-17 19:33:00,63.0,11.0,-100.00,NE,55,13.0,19.0,13,0.00,,,0.00,1.000000,,2013-01-18 02:33:00,
2013-01-17 19:43:00,63.0,11.0,-100.00,NE,55,13.0,19.0,13,0.00,,,0.00,1.000000,,2013-01-18 02:43:00,
2013-01-17 19:53:00,63.0,11.0,-100.00,NE,55,13.0,19.0,13,0.00,,,0.00,1.000000,,2013-01-18 02:53:00,
2013-01-17 20:02:00,63.0,11.0,-100.00,NE,55,13.0,19.0,13,0.00,,,0.00,1.000000,,2013-01-18 03:02:00,
2013-01-17 20:33:00,62.0,12.0,-100.00,NE,50,8.0,18.0,14,0.00,,,0.00,1.000000,,2013-01-18 03:33:00,
2013-01-17 20:43:00,62.0,12.0,-100.00,NE,50,8.0,18.0,14,0.00,,,0.00,1.000000,,2013-01-18 03:43:00,
2013-01-17 20:52:00,62.0,12.0,-100.00,NE,50,8.0,18.0,14,0.00,,,0.00,1.000000,,2013-01-18 03:52:00,
2013-01-17 21:02:00,62.0,12.0,-100.00,NE,50,8.0,18.0,14,0.00,,,0.00,1.000000,,2013-01-18 04:02:00,
2013-01-17 21:33:00,61.0,11.0,-100.00,ENE,68,7.0,16.0,14,0.00,,,0.00,1.000000,,2013-01-18 04:33:00,
2013-01-17 21:42:00,61.0,11.0,-100.00,ENE,68,7.0,16.0,14,0.00,,,0.00,1.000000,,2013-01-18 04:42:00,
2013-01-17 21:53:00,61.0,11.0,-100.00,ENE,68,7.0,16.0,14,0.00,,,0.00,1.000000,,2013-01-18 04:53:00,
2013-01-17 22:03:00,61.0,11.0,-100.00,ENE,68,7.0,16.0,14,0.00,,,0.00,1.000000,,2013-01-18 05:03:00,
2013-01-17 22:33:00,61.0,11.0,-100.00,East,85,6.0,14.0,14,0.00,,,0.00,1.000000,,2013-01-18 05:33:00,
2013-01-17 22:43:00,61.0,11.0,-100.00,East,85,6.0,14.0,14,0.00,,,0.00,1.000000,,2013-01-18 05:43:00,
2013-01-17 22:53:00,61.0,11.0,-100.00,East,85,6.0,14.0,14,0.00,,,0.00,1.000000,,2013-01-18 05:53:00,
2013-01-17 23:02:00,61.0,11.0,-100.00,East,85,6.0,14.0,14,0.00,,,0.00,1.000000,,2013-01-18 06:02:00,
2013-01-17 23:33:00,58.0,12.0,-100.00,SW,230,2.0,12.0,16,0.00,,,0.00,1.000000,,2013-01-18 06:33:00,
2013-01-17 23:43:00,58.0,12.0,-100.00,SW,230,2.0,12.0,16,0.00,,,0.00,1.000000,,2013-01-18 06:43:00,
2013-01-17 23:52:00,58.0,12.0,-100.00,SW,230,2.0,12.0,16,0.00,,,0.00,1.000000,,2013-01-18 06:52:00,